createdAt,value
2018-03-03T00:00:05.997Z,51.50
2018-03-03T00:01:06.701Z,51.50
2018-03-03T00:02:06.371Z,51.40
2018-03-03T00:03:11.312Z,51.10
2018-03-03T00:04:06.364Z,51.00
2018-03-03T00:05:06.670Z,50.80
2018-03-03T00:06:06.709Z,50.80
2018-03-03T00:07:09.540Z,50.80
2018-03-03T00:08:07.047Z,50.80
2018-03-03T00:09:06.677Z,50.80
2018-03-03T00:10:06.357Z,50.70
2018-03-03T00:11:08.875Z,50.70
2018-03-03T00:12:12.456Z,50.80
2018-03-03T00:13:06.302Z,50.80
2018-03-03T00:14:06.613Z,50.80
2018-03-03T00:15:05.968Z,50.70
2018-03-03T00:16:06.264Z,50.40
2018-03-03T00:17:06.031Z,50.30
2018-03-03T00:18:06.636Z,50.30
2018-03-03T00:19:06.077Z,50.30
2018-03-03T00:20:08.943Z,50.20
2018-03-03T00:21:08.895Z,50.10
2018-03-03T00:22:05.980Z,50.10
2018-03-03T00:23:10.839Z,50.00
2018-03-03T00:24:08.949Z,50.00
2018-03-03T00:25:09.180Z,49.90
2018-03-03T00:26:05.995Z,49.90
2018-03-03T00:27:08.866Z,49.80
2018-03-03T00:28:07.034Z,49.80
2018-03-03T00:29:06.984Z,49.70
2018-03-03T00:30:06.013Z,49.80
2018-03-03T00:31:08.743Z,49.80
2018-03-03T00:32:11.281Z,49.70
2018-03-03T00:33:07.146Z,49.70
2018-03-03T00:34:06.392Z,49.70
2018-03-03T00:35:06.627Z,49.60
2018-03-03T00:36:11.276Z,49.60
2018-03-03T00:37:05.873Z,49.60
2018-03-03T00:38:07.065Z,49.60
2018-03-03T00:39:06.408Z,49.60
2018-03-03T00:40:06.759Z,49.40
2018-03-03T00:41:06.697Z,49.30
2018-03-03T00:42:11.650Z,49.40
2018-03-03T00:43:06.744Z,49.40
2018-03-03T00:44:09.478Z,49.50
2018-03-03T00:45:06.294Z,49.50
2018-03-03T00:46:06.752Z,49.30
2018-03-03T00:47:06.302Z,49.10
2018-03-03T00:48:07.034Z,49.00
2018-03-03T00:49:06.000Z,49.00
2018-03-03T00:50:06.107Z,48.90
2018-03-03T00:51:06.446Z,49.00
2018-03-03T00:52:06.790Z,49.00
2018-03-03T00:53:06.385Z,49.00
2018-03-03T00:54:06.450Z,49.00
2018-03-03T00:55:06.781Z,49.00
2018-03-03T00:56:11.122Z,48.90
2018-03-03T00:57:11.193Z,48.90
2018-03-03T00:58:16.275Z,48.90
2018-03-03T00:59:10.744Z,48.90
2018-03-03T01:00:06.030Z,48.90
2018-03-03T01:01:11.850Z,48.90
2018-03-03T01:02:11.302Z,49.00
2018-03-03T01:03:06.786Z,49.00
2018-03-03T01:04:06.699Z,49.00
2018-03-03T01:05:13.146Z,48.90
2018-03-03T01:06:06.060Z,48.90
2018-03-03T01:07:10.960Z,48.80
2018-03-03T01:08:06.834Z,48.70
2018-03-03T01:09:06.142Z,48.70
2018-03-03T01:10:06.417Z,48.60
2018-03-03T01:11:07.150Z,35.90
2018-03-03T01:12:06.447Z,48.60
2018-03-03T01:13:05.759Z,48.70
2018-03-03T01:14:06.359Z,48.60
2018-03-03T01:15:06.766Z,48.70
2018-03-03T01:16:06.728Z,48.80
2018-03-03T01:17:06.109Z,48.80
2018-03-03T01:18:06.038Z,48.70
2018-03-03T01:19:06.455Z,48.80
2018-03-03T01:20:05.731Z,48.80
2018-03-03T01:21:06.286Z,48.80
2018-03-03T01:22:05.663Z,48.70
2018-03-03T01:23:06.732Z,48.70
2018-03-03T01:24:11.272Z,48.70
2018-03-03T01:25:06.041Z,48.80
2018-03-03T01:26:07.044Z,48.80
2018-03-03T01:27:06.870Z,48.80
2018-03-03T01:28:06.401Z,48.80
2018-03-03T01:29:08.871Z,48.90
2018-03-03T01:30:10.156Z,49.00
2018-03-03T01:31:06.043Z,49.00
2018-03-03T01:32:06.714Z,48.90
2018-03-03T01:33:08.656Z,49.00
2018-03-03T01:34:07.916Z,49.00
2018-03-03T01:35:06.305Z,48.90
2018-03-03T01:36:06.789Z,49.00
2018-03-03T01:37:06.342Z,49.00
2018-03-03T01:38:08.763Z,49.00
2018-03-03T01:39:06.768Z,49.10
2018-03-03T01:40:08.647Z,49.20
2018-03-03T01:41:06.926Z,49.20
2018-03-03T01:42:06.454Z,49.20
2018-03-03T01:43:06.460Z,49.30
2018-03-03T01:44:06.174Z,49.30
2018-03-03T01:45:08.731Z,49.40
2018-03-03T01:46:09.102Z,49.30
2018-03-03T01:47:06.059Z,49.40
2018-03-03T01:48:08.605Z,49.40
2018-03-03T01:49:06.783Z,49.40
2018-03-03T01:50:08.814Z,49.50
2018-03-03T01:51:06.825Z,49.50
2018-03-03T01:52:06.070Z,49.50
2018-03-03T01:53:08.397Z,49.50
2018-03-03T01:54:06.312Z,49.50
2018-03-03T01:55:06.476Z,49.50
2018-03-03T01:56:06.893Z,49.60
2018-03-03T01:57:05.705Z,49.60
2018-03-03T01:58:06.542Z,49.70
2018-03-03T01:59:09.813Z,49.70
2018-03-03T02:00:11.271Z,49.70
2018-03-03T02:01:08.430Z,49.70
2018-03-03T02:02:08.832Z,49.80
2018-03-03T02:03:06.781Z,49.80
2018-03-03T02:04:06.744Z,49.90
2018-03-03T02:05:06.791Z,49.90
2018-03-03T02:06:07.192Z,49.90
2018-03-03T02:07:06.376Z,49.90
2018-03-03T02:08:08.834Z,50.00
2018-03-03T02:09:08.838Z,50.00
2018-03-03T02:10:06.846Z,50.00
2018-03-03T02:11:06.070Z,50.10
2018-03-03T02:12:06.399Z,50.10
2018-03-03T02:13:09.251Z,50.10
2018-03-03T02:14:06.073Z,50.10
2018-03-03T02:15:06.065Z,50.20
2018-03-03T02:16:08.698Z,50.30
2018-03-03T02:17:06.772Z,50.30
2018-03-03T02:18:06.159Z,50.30
2018-03-03T02:19:06.778Z,50.30
2018-03-03T02:20:06.436Z,50.40
2018-03-03T02:21:08.633Z,50.50
2018-03-03T02:22:06.523Z,50.40
2018-03-03T02:23:14.098Z,50.50
2018-03-03T02:24:06.021Z,50.50
2018-03-03T02:25:06.387Z,50.50
2018-03-03T02:26:06.573Z,50.60
2018-03-03T02:27:09.512Z,50.60
2018-03-03T02:28:11.032Z,50.70
2018-03-03T02:29:14.284Z,50.70
2018-03-03T02:30:08.582Z,50.70
2018-03-03T02:31:08.785Z,50.80
2018-03-03T02:32:08.913Z,38.00
2018-03-03T02:33:09.017Z,50.80
2018-03-03T02:34:05.731Z,50.80
2018-03-03T02:35:06.550Z,50.90
2018-03-03T02:36:06.797Z,50.80
2018-03-03T02:37:06.456Z,51.00
2018-03-03T02:38:06.796Z,51.00
2018-03-03T02:39:06.200Z,51.00
2018-03-03T02:40:06.559Z,51.10
2018-03-03T02:41:08.551Z,51.10
2018-03-03T02:42:06.469Z,51.10
2018-03-03T02:43:06.261Z,51.20
2018-03-03T02:44:06.921Z,51.30
2018-03-03T02:45:08.693Z,51.30
2018-03-03T02:46:06.748Z,51.30
2018-03-03T02:47:08.787Z,51.40
2018-03-03T02:48:06.496Z,51.40
2018-03-03T02:49:06.203Z,51.40
2018-03-03T02:50:07.202Z,51.40
2018-03-03T02:51:07.163Z,51.40
2018-03-03T02:52:06.488Z,51.40
2018-03-03T02:53:06.570Z,51.40
2018-03-03T02:54:07.360Z,51.40
2018-03-03T02:55:06.853Z,51.50
2018-03-03T02:56:05.810Z,51.50
2018-03-03T02:57:10.963Z,51.50
2018-03-03T02:58:09.063Z,51.60
2018-03-03T02:59:08.687Z,51.60
2018-03-03T03:00:06.817Z,51.60
2018-03-03T03:01:06.482Z,51.60
2018-03-03T03:02:10.598Z,51.60
2018-03-03T03:03:06.206Z,51.70
2018-03-03T03:04:06.593Z,51.70
2018-03-03T03:05:07.368Z,51.70
2018-03-03T03:06:06.605Z,51.80
2018-03-03T03:07:06.126Z,51.90
2018-03-03T03:08:06.493Z,51.80
2018-03-03T03:09:09.210Z,52.00
2018-03-03T03:10:06.237Z,51.90
2018-03-03T03:11:08.720Z,52.00
2018-03-03T03:12:08.804Z,52.00
2018-03-03T03:13:08.922Z,52.00
2018-03-03T03:14:09.310Z,52.20
2018-03-03T03:15:06.125Z,52.20
2018-03-03T03:16:08.501Z,52.40
2018-03-03T03:17:09.001Z,52.50
2018-03-03T03:18:10.508Z,52.40
2018-03-03T03:19:06.122Z,52.50
2018-03-03T03:20:06.131Z,52.50
2018-03-03T03:21:06.534Z,52.50
2018-03-03T03:22:08.827Z,52.70
2018-03-03T03:23:06.598Z,52.70
2018-03-03T03:24:06.897Z,52.60
2018-03-03T03:25:05.818Z,52.70
2018-03-03T03:26:06.153Z,52.80
2018-03-03T03:27:11.326Z,52.80
2018-03-03T03:28:06.841Z,52.80
2018-03-03T03:29:06.989Z,52.90
2018-03-03T03:30:06.135Z,53.00
2018-03-03T03:31:08.702Z,53.10
2018-03-03T03:32:06.523Z,53.00
2018-03-03T03:33:08.492Z,53.30
2018-03-03T03:34:06.521Z,53.30
2018-03-03T03:35:11.382Z,53.30
2018-03-03T03:36:05.813Z,53.30
2018-03-03T03:37:08.723Z,53.30
2018-03-03T03:38:06.599Z,53.30
2018-03-03T03:39:06.038Z,53.30
2018-03-03T03:40:09.985Z,53.50
2018-03-03T03:41:06.489Z,53.50
2018-03-03T03:42:06.080Z,53.60
2018-03-03T03:43:06.542Z,53.50
2018-03-03T03:44:06.512Z,53.50
2018-03-03T03:45:06.920Z,53.50
2018-03-03T03:46:06.456Z,53.40
2018-03-03T03:47:06.605Z,53.30
2018-03-03T03:48:06.588Z,53.30
2018-03-03T03:49:10.795Z,53.30
2018-03-03T03:50:06.894Z,53.20
2018-03-03T03:51:06.244Z,53.10
2018-03-03T03:52:06.927Z,53.10
2018-03-03T03:53:06.283Z,53.10
2018-03-03T03:54:06.173Z,53.10
2018-03-03T03:55:07.222Z,53.00
2018-03-03T03:56:06.498Z,53.00
2018-03-03T03:57:06.521Z,53.10
2018-03-03T03:58:09.060Z,53.20
2018-03-03T03:59:05.809Z,53.10
2018-03-03T04:00:11.535Z,53.20
2018-03-03T04:01:06.252Z,53.20
2018-03-03T04:02:07.322Z,53.20
2018-03-03T04:03:06.573Z,53.20
2018-03-03T04:04:06.131Z,53.20
2018-03-03T04:05:06.522Z,53.30
2018-03-03T04:06:06.555Z,53.30
2018-03-03T04:07:06.521Z,53.30
2018-03-03T04:08:10.809Z,53.40
2018-03-03T04:09:06.210Z,53.40
2018-03-03T04:10:10.735Z,53.50
2018-03-03T04:11:10.800Z,53.40
2018-03-03T04:12:05.823Z,53.40
2018-03-03T04:13:06.218Z,53.50
2018-03-03T04:14:06.132Z,53.50
2018-03-03T04:15:06.500Z,53.60
2018-03-03T04:16:05.846Z,53.50
2018-03-03T04:17:06.610Z,53.70
2018-03-03T04:18:06.325Z,53.70
2018-03-03T04:19:06.882Z,53.70
2018-03-03T04:20:06.229Z,53.70
2018-03-03T04:21:16.033Z,53.70
2018-03-03T04:22:06.670Z,53.70
2018-03-03T04:23:08.663Z,53.80
2018-03-03T04:24:06.539Z,53.80
2018-03-03T04:25:07.077Z,53.80
2018-03-03T04:26:05.899Z,53.90
2018-03-03T04:27:09.530Z,54.00
2018-03-03T04:28:06.564Z,54.00
2018-03-03T04:29:08.188Z,54.00
2018-03-03T04:30:08.745Z,54.00
2018-03-03T04:31:06.591Z,54.00
2018-03-03T04:32:06.216Z,54.00
2018-03-03T04:33:06.840Z,54.00
2018-03-03T04:34:06.705Z,54.10
2018-03-03T04:35:08.856Z,54.40
2018-03-03T04:36:06.932Z,54.40
2018-03-03T04:37:08.598Z,54.40
2018-03-03T04:38:06.617Z,54.40
2018-03-03T04:39:06.593Z,54.50
2018-03-03T04:40:08.812Z,54.50
2018-03-03T04:41:06.889Z,54.50
2018-03-03T04:42:14.563Z,54.60
2018-03-03T04:43:08.801Z,54.70
2018-03-03T04:44:06.612Z,54.60
2018-03-03T04:45:05.847Z,54.70
2018-03-03T04:46:11.288Z,54.80
2018-03-03T04:47:05.883Z,54.90
2018-03-03T04:48:06.659Z,54.90
2018-03-03T04:49:05.829Z,54.90
2018-03-03T04:50:06.190Z,54.90
2018-03-03T04:51:06.624Z,55.00
2018-03-03T04:52:11.209Z,55.00
2018-03-03T04:53:11.499Z,55.00
2018-03-03T04:54:05.952Z,55.10
2018-03-03T04:55:06.150Z,55.00
2018-03-03T04:56:14.257Z,55.10
2018-03-03T04:57:06.253Z,55.00
2018-03-03T04:58:11.481Z,55.10
2018-03-03T04:59:06.239Z,55.20
2018-03-03T05:00:06.549Z,55.20
2018-03-03T05:01:06.255Z,55.30
2018-03-03T05:02:06.493Z,55.40
2018-03-03T05:03:07.003Z,55.30
2018-03-03T05:04:06.134Z,55.20
2018-03-03T05:05:06.203Z,55.20
2018-03-03T05:06:08.580Z,55.20
2018-03-03T05:07:06.569Z,55.20
2018-03-03T05:08:05.832Z,55.20
2018-03-03T05:09:06.283Z,55.20
2018-03-03T05:10:10.647Z,55.20
2018-03-03T05:11:08.882Z,55.20
2018-03-03T05:12:06.646Z,55.20
2018-03-03T05:13:07.101Z,55.20
2018-03-03T05:14:06.681Z,55.30
2018-03-03T05:15:10.691Z,55.40
2018-03-03T05:16:08.968Z,55.30
2018-03-03T05:17:08.545Z,55.30
2018-03-03T05:18:11.040Z,55.30
2018-03-03T05:19:11.533Z,55.20
2018-03-03T05:20:06.620Z,55.20
2018-03-03T05:21:09.099Z,55.10
2018-03-03T05:22:06.172Z,55.10
2018-03-03T05:23:11.144Z,55.10
2018-03-03T05:24:06.288Z,55.00
2018-03-03T05:25:06.997Z,55.10
2018-03-03T05:26:09.394Z,55.10
2018-03-03T05:27:06.897Z,55.00
2018-03-03T05:28:06.303Z,55.00
2018-03-03T05:29:10.758Z,54.90
2018-03-03T05:30:07.062Z,54.90
2018-03-03T05:31:06.946Z,54.90
2018-03-03T05:32:06.705Z,54.90
2018-03-03T05:33:06.779Z,54.90
2018-03-03T05:34:06.682Z,54.80
2018-03-03T05:35:05.883Z,54.80
2018-03-03T05:36:06.691Z,54.70
2018-03-03T05:37:09.122Z,54.70
2018-03-03T05:38:06.146Z,54.70
2018-03-03T05:39:07.046Z,54.70
2018-03-03T05:40:06.311Z,54.70
2018-03-03T05:41:08.764Z,54.70
2018-03-03T05:42:11.209Z,54.80
2018-03-03T05:43:06.797Z,54.80
2018-03-03T05:44:08.842Z,54.80
2018-03-03T05:45:06.675Z,54.80
2018-03-03T05:46:05.881Z,54.80
2018-03-03T05:47:06.312Z,54.80
2018-03-03T05:48:06.710Z,54.90
2018-03-03T05:49:06.240Z,55.00
2018-03-03T05:50:05.900Z,55.00
2018-03-03T05:51:05.884Z,54.90
2018-03-03T05:52:06.774Z,54.80
2018-03-03T05:53:09.271Z,54.80
2018-03-03T05:54:06.223Z,54.80
2018-03-03T05:55:06.675Z,54.90
2018-03-03T05:56:06.565Z,54.90
2018-03-03T05:57:08.938Z,54.90
2018-03-03T05:58:07.754Z,54.80
2018-03-03T05:59:06.759Z,54.80
2018-03-03T06:00:06.357Z,54.80
2018-03-03T06:01:06.958Z,54.80
2018-03-03T06:02:05.960Z,54.70
2018-03-03T06:03:06.644Z,54.90
2018-03-03T06:04:06.584Z,54.80
2018-03-03T06:05:06.968Z,54.90
2018-03-03T06:06:05.919Z,54.80
2018-03-03T06:07:06.314Z,54.90
2018-03-03T06:08:08.642Z,54.90
2018-03-03T06:09:06.661Z,54.80
2018-03-03T06:10:06.365Z,54.80
2018-03-03T06:11:06.619Z,54.80
2018-03-03T06:12:10.806Z,54.90
2018-03-03T06:13:06.737Z,54.80
2018-03-03T06:14:10.829Z,54.90
2018-03-03T06:15:11.355Z,54.70
2018-03-03T06:16:07.063Z,54.80
2018-03-03T06:17:05.926Z,54.70
2018-03-03T06:18:06.556Z,54.90
2018-03-03T06:19:06.242Z,54.70
2018-03-03T06:20:09.944Z,54.60
2018-03-03T06:21:06.329Z,54.60
2018-03-03T06:22:05.994Z,54.60
2018-03-03T06:23:06.772Z,54.70
2018-03-03T06:24:07.747Z,54.70
2018-03-03T06:25:11.671Z,54.80
2018-03-03T06:26:06.752Z,55.00
2018-03-03T06:27:06.228Z,55.00
2018-03-03T06:28:09.077Z,55.00
2018-03-03T06:29:11.510Z,55.00
2018-03-03T06:30:08.599Z,54.90
2018-03-03T06:31:11.185Z,54.90
2018-03-03T06:32:05.899Z,54.80
2018-03-03T06:33:06.194Z,54.80
2018-03-03T06:34:06.343Z,54.90
2018-03-03T06:35:08.878Z,54.80
2018-03-03T06:36:06.698Z,54.80
2018-03-03T06:37:05.968Z,54.90
2018-03-03T06:38:11.191Z,54.90
2018-03-03T06:39:07.066Z,54.90
2018-03-03T06:40:06.266Z,54.90
2018-03-03T06:41:06.725Z,54.90
2018-03-03T06:42:06.239Z,54.90
2018-03-03T06:43:06.622Z,54.80
2018-03-03T06:44:07.000Z,54.90
2018-03-03T06:45:06.278Z,54.90
2018-03-03T06:46:06.975Z,54.90
2018-03-03T06:47:06.236Z,54.90
2018-03-03T06:48:05.932Z,54.90
2018-03-03T06:49:09.329Z,55.00
2018-03-03T06:50:09.788Z,55.00
2018-03-03T06:51:09.764Z,55.00
2018-03-03T06:52:07.085Z,55.00
2018-03-03T06:53:08.927Z,55.10
2018-03-03T06:54:06.782Z,55.20
2018-03-03T06:55:06.346Z,55.10
2018-03-03T06:56:05.927Z,55.20
2018-03-03T06:57:10.625Z,55.30
2018-03-03T06:58:06.584Z,55.30
2018-03-03T06:59:05.950Z,55.20
2018-03-03T07:00:06.366Z,55.20
2018-03-03T07:01:06.783Z,55.30
2018-03-03T07:02:10.731Z,55.50
2018-03-03T07:03:11.224Z,55.50
2018-03-03T07:04:08.633Z,55.40
2018-03-03T07:05:06.384Z,55.40
2018-03-03T07:06:09.185Z,55.30
2018-03-03T07:07:06.239Z,55.30
2018-03-03T07:08:07.878Z,55.20
2018-03-03T07:09:06.239Z,55.20
2018-03-03T07:10:06.456Z,55.20
2018-03-03T07:11:06.211Z,55.30
2018-03-03T07:12:06.384Z,55.30
2018-03-03T07:13:06.834Z,55.40
2018-03-03T07:14:06.709Z,55.40
2018-03-03T07:15:08.927Z,55.40
2018-03-03T07:16:07.052Z,55.40
2018-03-03T07:17:08.982Z,55.40
2018-03-03T07:18:08.276Z,55.40
2018-03-03T07:19:06.266Z,55.40
2018-03-03T07:20:11.104Z,55.50
2018-03-03T07:21:11.458Z,55.50
2018-03-03T07:22:06.994Z,55.40
2018-03-03T07:23:07.564Z,55.30
2018-03-03T07:24:10.599Z,55.20
2018-03-03T07:25:10.830Z,55.20
2018-03-03T07:26:06.289Z,55.20
2018-03-03T07:27:05.960Z,55.30
2018-03-03T07:28:07.887Z,55.30
2018-03-03T07:29:06.350Z,55.40
2018-03-03T07:30:06.215Z,55.40
2018-03-03T07:31:06.266Z,55.40
2018-03-03T07:32:06.451Z,55.50
2018-03-03T07:33:06.077Z,55.60
2018-03-03T07:34:10.832Z,55.60
2018-03-03T07:35:07.113Z,55.80
2018-03-03T07:36:09.119Z,55.90
2018-03-03T07:37:13.860Z,56.00
2018-03-03T07:38:11.308Z,56.00
2018-03-03T07:39:11.620Z,56.00
2018-03-03T07:40:06.390Z,56.10
2018-03-03T07:41:07.100Z,56.10
2018-03-03T07:42:06.125Z,56.20
2018-03-03T07:43:06.355Z,56.30
2018-03-03T07:44:05.977Z,56.50
2018-03-03T07:45:06.684Z,56.60
2018-03-03T07:46:05.976Z,56.60
2018-03-03T07:47:11.045Z,56.90
2018-03-03T07:48:09.030Z,57.20
2018-03-03T07:49:10.460Z,57.20
2018-03-03T07:50:05.988Z,57.30
2018-03-03T07:51:06.276Z,57.40
2018-03-03T07:52:06.320Z,57.50
2018-03-03T07:53:11.184Z,58.00
2018-03-03T07:54:10.472Z,58.20
2018-03-03T07:55:06.368Z,58.10
2018-03-03T07:56:06.395Z,58.30
2018-03-03T07:57:06.078Z,58.50
2018-03-03T07:58:06.101Z,58.70
2018-03-03T07:59:08.333Z,59.30
2018-03-03T08:00:11.022Z,59.30
2018-03-03T08:01:05.990Z,59.40
2018-03-03T08:02:09.197Z,59.70
2018-03-03T08:03:06.079Z,59.70
2018-03-03T08:04:06.721Z,59.90
2018-03-03T08:05:10.845Z,60.50
2018-03-03T08:06:06.655Z,61.10
2018-03-03T08:07:06.466Z,61.30
2018-03-03T08:08:10.931Z,61.80
2018-03-03T08:09:08.771Z,61.90
2018-03-03T08:10:06.759Z,61.90
2018-03-03T08:11:10.551Z,62.40
2018-03-03T08:12:10.790Z,62.30
2018-03-03T08:13:06.681Z,62.30
2018-03-03T08:14:06.721Z,62.30
2018-03-03T08:15:06.081Z,62.50
2018-03-03T08:16:10.867Z,63.30
2018-03-03T08:17:11.297Z,63.40
2018-03-03T08:18:06.033Z,63.60
2018-03-03T08:19:06.531Z,63.80
2018-03-03T08:20:06.859Z,64.10
2018-03-03T08:21:06.039Z,64.10
2018-03-03T08:22:06.389Z,64.20
2018-03-03T08:23:09.244Z,64.80
2018-03-03T08:24:08.757Z,65.00
2018-03-03T08:25:06.454Z,65.00
2018-03-03T08:26:10.637Z,65.10
2018-03-03T08:27:06.436Z,65.00
2018-03-03T08:28:06.068Z,65.00
2018-03-03T08:29:06.837Z,65.10
2018-03-03T08:30:06.733Z,65.50
2018-03-03T08:31:06.061Z,65.90
2018-03-03T08:32:06.406Z,66.20
2018-03-03T08:33:06.525Z,66.30
2018-03-03T08:34:06.384Z,66.40
2018-03-03T08:35:06.043Z,66.50
2018-03-03T08:36:08.929Z,66.50
2018-03-03T08:37:09.200Z,66.50
2018-03-03T08:38:06.298Z,66.50
2018-03-03T08:39:06.846Z,66.40
2018-03-03T08:40:10.458Z,66.40
2018-03-03T08:41:10.480Z,66.40
2018-03-03T08:42:06.024Z,66.40
2018-03-03T08:43:06.461Z,66.60
2018-03-03T08:44:11.448Z,66.70
2018-03-03T08:45:06.337Z,66.60
2018-03-03T08:46:06.414Z,66.60
2018-03-03T08:47:06.702Z,66.20
2018-03-03T08:48:09.310Z,66.60
2018-03-03T08:49:11.377Z,66.60
2018-03-03T08:50:06.456Z,66.70
2018-03-03T08:51:07.577Z,66.70
2018-03-03T08:52:06.496Z,66.70
2018-03-03T08:53:06.001Z,66.90
2018-03-03T08:54:06.374Z,67.10
2018-03-03T08:55:06.451Z,67.60
2018-03-03T08:56:06.367Z,67.50
2018-03-03T08:57:09.843Z,67.30
2018-03-03T08:58:06.349Z,67.30
2018-03-03T08:59:10.007Z,67.50
2018-03-03T09:00:05.984Z,67.50
2018-03-03T09:01:10.845Z,67.90
2018-03-03T09:02:06.818Z,67.90
2018-03-03T09:03:11.391Z,68.30
2018-03-03T09:04:06.481Z,68.50
2018-03-03T09:05:08.715Z,68.90
2018-03-03T09:06:06.477Z,68.80
2018-03-03T09:07:10.980Z,68.70
2018-03-03T09:08:09.233Z,68.80
2018-03-03T09:09:06.482Z,68.80
2018-03-03T09:10:09.270Z,68.60
2018-03-03T09:11:06.352Z,68.60
2018-03-03T09:12:06.544Z,68.60
2018-03-03T09:13:06.090Z,68.60
2018-03-03T09:14:06.077Z,68.60
2018-03-03T09:15:07.152Z,68.90
2018-03-03T09:16:12.370Z,68.80
2018-03-03T09:17:06.098Z,68.70
2018-03-03T09:18:11.239Z,68.20
2018-03-03T09:19:06.039Z,68.10
2018-03-03T09:20:06.868Z,67.90
2018-03-03T09:21:09.811Z,67.90
2018-03-03T09:22:06.165Z,67.90
2018-03-03T09:23:05.806Z,68.00
2018-03-03T09:24:08.743Z,67.50
2018-03-03T09:25:06.383Z,67.50
2018-03-03T09:26:06.469Z,67.40
2018-03-03T09:27:06.089Z,67.40
2018-03-03T09:28:06.109Z,67.20
2018-03-03T09:29:11.345Z,67.10
2018-03-03T09:30:06.344Z,66.90
2018-03-03T09:31:06.057Z,66.70
2018-03-03T09:32:06.952Z,66.50
2018-03-03T09:33:06.453Z,66.80
2018-03-03T09:34:06.463Z,66.70
2018-03-03T09:35:05.771Z,66.70
2018-03-03T09:36:06.816Z,66.90
2018-03-03T09:37:08.757Z,66.80
2018-03-03T09:38:06.835Z,66.90
2018-03-03T09:39:06.523Z,66.70
2018-03-03T09:40:08.790Z,66.40
2018-03-03T09:41:06.585Z,66.30
2018-03-03T09:42:05.728Z,66.40
2018-03-03T09:43:08.852Z,66.60
2018-03-03T09:44:06.839Z,66.60
2018-03-03T09:45:05.735Z,66.70
2018-03-03T09:46:06.149Z,66.70
2018-03-03T09:47:09.269Z,66.60
2018-03-03T09:48:08.787Z,67.00
2018-03-03T09:49:06.764Z,67.00
2018-03-03T09:50:06.432Z,67.50
2018-03-03T09:51:06.794Z,67.60
2018-03-03T09:52:08.431Z,68.30
2018-03-03T09:53:06.401Z,68.30
2018-03-03T09:54:06.468Z,68.30
2018-03-03T09:55:06.044Z,68.50
2018-03-03T09:56:06.783Z,68.80
2018-03-03T09:57:06.112Z,69.00
2018-03-03T09:58:09.945Z,69.80
2018-03-03T09:59:06.848Z,69.80
2018-03-03T10:00:11.189Z,70.30
2018-03-03T10:01:06.579Z,70.30
2018-03-03T10:02:10.677Z,70.70
2018-03-03T10:03:09.309Z,70.80
2018-03-03T10:04:06.468Z,70.80
2018-03-03T10:05:10.636Z,70.90
2018-03-03T10:06:06.481Z,70.90
2018-03-03T10:07:06.141Z,71.00
2018-03-03T10:08:06.565Z,71.20
2018-03-03T10:09:08.969Z,71.00
2018-03-03T10:10:11.379Z,71.00
2018-03-03T10:11:11.520Z,70.90
2018-03-03T10:12:06.547Z,71.10
2018-03-03T10:13:15.241Z,70.80
2018-03-03T10:14:09.336Z,70.70
2018-03-03T10:15:07.043Z,70.70
2018-03-03T10:16:07.806Z,70.60
2018-03-03T10:17:08.095Z,70.80
2018-03-03T10:18:11.416Z,70.40
2018-03-03T10:19:06.490Z,70.30
2018-03-03T10:20:06.889Z,70.50
2018-03-03T10:21:08.457Z,70.00
2018-03-03T10:22:06.441Z,70.00
2018-03-03T10:23:09.156Z,70.20
2018-03-03T10:24:06.477Z,70.20
2018-03-03T10:25:07.569Z,70.20
2018-03-03T10:26:05.757Z,70.30
2018-03-03T10:27:06.433Z,70.30
2018-03-03T10:28:11.505Z,70.40
2018-03-03T10:29:05.750Z,70.50
2018-03-03T10:30:06.464Z,70.20
2018-03-03T10:31:06.570Z,70.30
2018-03-03T10:32:10.938Z,70.00
2018-03-03T10:33:06.550Z,70.00
2018-03-03T10:34:06.171Z,69.90
2018-03-03T10:35:06.500Z,70.00
2018-03-03T10:36:08.925Z,70.20
2018-03-03T10:37:09.305Z,69.90
2018-03-03T10:38:06.417Z,69.90
2018-03-03T10:39:06.841Z,69.70
2018-03-03T10:40:11.469Z,69.50
2018-03-03T10:41:06.166Z,69.40
2018-03-03T10:42:10.609Z,68.90
2018-03-03T10:43:06.193Z,69.00
2018-03-03T10:44:06.986Z,69.10
2018-03-03T10:45:06.795Z,69.20
2018-03-03T10:46:10.852Z,68.80
2018-03-03T10:47:06.534Z,68.80
2018-03-03T10:48:07.962Z,69.00
2018-03-03T10:49:05.868Z,69.40
2018-03-03T10:50:10.684Z,69.00
2018-03-03T10:51:06.621Z,69.00
2018-03-03T10:52:06.826Z,68.80
2018-03-03T10:53:06.143Z,68.40
2018-03-03T10:54:09.044Z,68.40
2018-03-03T10:55:05.777Z,68.40
2018-03-03T10:56:06.566Z,68.30
2018-03-03T10:57:08.831Z,68.20
2018-03-03T10:58:06.521Z,68.20
2018-03-03T10:59:08.928Z,68.90
2018-03-03T11:00:07.246Z,68.80
2018-03-03T11:01:11.059Z,69.10
2018-03-03T11:02:06.880Z,69.20
2018-03-03T11:03:10.371Z,68.80
2018-03-03T11:04:07.210Z,68.30
2018-03-03T11:05:06.458Z,68.10
2018-03-03T11:06:09.021Z,68.00
2018-03-03T11:07:15.393Z,67.30
2018-03-03T11:08:11.304Z,67.00
2018-03-03T11:09:06.532Z,67.00
2018-03-03T11:10:06.182Z,67.10
2018-03-03T11:11:06.839Z,66.80
2018-03-03T11:12:06.201Z,67.20
2018-03-03T11:13:05.783Z,67.30
2018-03-03T11:14:06.457Z,67.30
2018-03-03T11:15:06.701Z,67.70
2018-03-03T11:16:06.552Z,68.30
2018-03-03T11:17:11.117Z,68.60
2018-03-03T11:18:06.678Z,68.70
2018-03-03T11:19:10.756Z,68.10
2018-03-03T11:20:06.588Z,68.00
2018-03-03T11:21:06.505Z,67.80
2018-03-03T11:22:09.106Z,67.40
2018-03-03T11:23:06.127Z,67.40
2018-03-03T11:24:06.618Z,67.50
2018-03-03T11:25:09.125Z,68.40
2018-03-03T11:26:05.791Z,68.40
2018-03-03T11:27:11.021Z,68.30
2018-03-03T11:28:06.169Z,68.30
2018-03-03T11:29:06.111Z,67.60
2018-03-03T11:30:08.877Z,66.90
2018-03-03T11:31:06.583Z,66.90
2018-03-03T11:32:08.909Z,65.80
2018-03-03T11:33:06.437Z,65.80
2018-03-03T11:34:05.907Z,65.50
2018-03-03T11:35:06.561Z,65.70
2018-03-03T11:36:06.601Z,65.50
2018-03-03T11:37:10.720Z,65.20
2018-03-03T11:38:09.159Z,65.20
2018-03-03T11:39:05.793Z,65.30
2018-03-03T11:40:06.526Z,65.20
2018-03-03T11:41:05.805Z,65.30
2018-03-03T11:42:11.129Z,65.50
2018-03-03T11:43:05.789Z,65.50
2018-03-03T11:44:06.174Z,65.00
2018-03-03T11:45:06.917Z,64.80
2018-03-03T11:46:09.125Z,64.80
2018-03-03T11:47:05.879Z,64.80
2018-03-03T11:48:06.249Z,65.10
2018-03-03T11:49:05.832Z,65.00
2018-03-03T11:50:09.386Z,64.60
2018-03-03T11:51:09.090Z,64.80
2018-03-03T11:52:06.163Z,64.80
2018-03-03T11:53:08.560Z,64.50
2018-03-03T11:54:06.281Z,65.30
2018-03-03T11:55:09.176Z,65.30
2018-03-03T11:56:06.642Z,65.10
2018-03-03T11:57:06.579Z,65.00
2018-03-03T11:58:06.205Z,65.00
2018-03-03T11:59:06.849Z,65.10
2018-03-03T12:00:06.260Z,65.20
2018-03-03T12:01:06.625Z,64.80
2018-03-03T12:02:06.542Z,64.60
2018-03-03T12:03:05.858Z,52.00
2018-03-03T12:04:06.575Z,64.90
2018-03-03T12:05:06.161Z,64.80
2018-03-03T12:06:11.013Z,64.70
2018-03-03T12:07:05.948Z,64.80
2018-03-03T12:08:06.291Z,64.90
2018-03-03T12:09:05.878Z,64.90
2018-03-03T12:10:05.907Z,65.10
2018-03-03T12:11:11.049Z,65.00
2018-03-03T12:12:08.907Z,65.00
2018-03-03T12:13:06.881Z,65.00
2018-03-03T12:14:10.962Z,64.80
2018-03-03T12:15:06.859Z,64.70
2018-03-03T12:16:06.246Z,64.90
2018-03-03T12:17:06.668Z,65.00
2018-03-03T12:18:06.632Z,65.10
2018-03-03T12:19:06.251Z,65.00
2018-03-03T12:20:06.131Z,64.90
2018-03-03T12:21:06.563Z,65.30
2018-03-03T12:22:10.884Z,64.60
2018-03-03T12:23:06.558Z,64.60
2018-03-03T12:24:05.882Z,64.40
2018-03-03T12:25:06.319Z,64.70
2018-03-03T12:26:06.984Z,65.00
2018-03-03T12:27:08.997Z,64.80
2018-03-03T12:28:10.330Z,64.80
2018-03-03T12:29:06.231Z,65.10
2018-03-03T12:30:08.531Z,64.80
2018-03-03T12:31:06.580Z,64.80
2018-03-03T12:32:10.769Z,64.80
2018-03-03T12:33:08.946Z,64.80
2018-03-03T12:34:06.986Z,64.90
2018-03-03T12:35:13.986Z,64.80
2018-03-03T12:36:06.633Z,64.70
2018-03-03T12:37:06.578Z,64.60
2018-03-03T12:38:06.131Z,64.20
2018-03-03T12:39:06.911Z,64.10
2018-03-03T12:40:06.294Z,64.20
2018-03-03T12:41:05.882Z,64.50
2018-03-03T12:42:08.856Z,64.40
2018-03-03T12:43:07.048Z,64.60
2018-03-03T12:44:06.281Z,64.60
2018-03-03T12:45:05.871Z,64.90
2018-03-03T12:46:09.105Z,65.10
2018-03-03T12:47:08.197Z,65.00
2018-03-03T12:48:05.921Z,65.00
2018-03-03T12:49:08.902Z,64.80
2018-03-03T12:50:09.014Z,65.20
2018-03-03T12:51:06.966Z,65.20
2018-03-03T12:52:05.923Z,65.30